There are multiple Weather-warnings   Click here for more information


Meteo18 Weather Cam more information Meteo18 Weather Cam


warning for Thunderstorms more information blitzortung!


Rain radar more information rain snow radar


Visit our other weather sites:

Template documentation
and downloads

And another site



Weather Underground History page Text

Daily Summary for July 18, 2016 Units:  Metric    English   Both
« Previous Day
Next Day »
Daily Weekly Monthly Yearly Custom
  High: Low: Average:
Temperature: 34.9 °C 15.6 °C 25.1 °C
Dew Point: 19.5 °C 14.6 °C 17 °C
Humidity: 96 % 33 % 65 %
Wind Speed: 3.2 km/h 0.0 km/h 0.2 km/h
Wind Gust: 8.0 km/h - -
Wind:- - SSW
Pressure: 1020.5 hPa 1017.8 hPa -
Precipitation: 0.0 mm    
Historical Graphs
 
 
Tabular Data for July 18, 2016
Time Temperature Dew Point Pressure Wind Wind Speed Wind Gust Humidity Rainfall Rate (Hourly)
00:02 20.1 °C 16.7 °C 1020.5 hPa Calm     81 % 0.0 mm
00:07 20.1 °C 16.7 °C 1020.5 hPa Calm     81 % 0.0 mm
00:12 20.2 °C 16.8 °C 1020.5 hPa Calm     81 % 0.0 mm
00:17 20.2 °C 16.8 °C 1020.5 hPa Calm     81 % 0.0 mm
00:22 20.2 °C 16.8 °C 1020.5 hPa Calm     81 % 0.0 mm
00:27 20.2 °C 16.8 °C 1020.5 hPa Calm     81 % 0.0 mm
00:32 20.1 °C 16.7 °C 1020.5 hPa Calm     81 % 0.0 mm
00:37 19.9 °C 16.7 °C 1020.5 hPa Calm     82 % 0.0 mm
00:42 19.8 °C 16.6 °C 1020.5 hPa Calm     82 % 0.0 mm
00:52 19.6 °C 16.6 °C 1020.5 hPa Calm     83 % 0.0 mm
00:57 19.6 °C 16.6 °C 1020.5 hPa Calm     83 % 0.0 mm
01:02 19.6 °C 16.6 °C 1020.5 hPa Calm     83 % 0.0 mm
01:07 19.4 °C 16.4 °C 1020.5 hPa Calm     83 % 0.0 mm
01:12 19.4 °C 16.4 °C 1020.5 hPa Calm     83 % 0.0 mm
01:17 19.4 °C 16.4 °C 1020.5 hPa Calm     83 % 0.0 mm
01:22 19.3 °C 16.5 °C 1020.5 hPa Calm     84 % 0.0 mm
01:27 19.3 °C 16.3 °C 1020.5 hPa Calm     83 % 0.0 mm
01:32 19.3 °C 16.3 °C 1020.5 hPa Calm     83 % 0.0 mm
01:37 19.3 °C 16.5 °C 1020.5 hPa Calm     84 % 0.0 mm
01:42 19.2 °C 16.4 °C 1020.5 hPa Calm     84 % 0.0 mm
01:52 19.3 °C 16.5 °C 1020.5 hPa Calm     84 % 0.0 mm
01:57 19.2 °C 16.4 °C 1020.5 hPa Calm     84 % 0.0 mm
02:02 19.3 °C 16.3 °C 1020.5 hPa Calm     83 % 0.0 mm
02:07 19.2 °C 16.4 °C 1020.5 hPa Calm     84 % 0.0 mm
02:12 19.1 °C 16.3 °C 1020.5 hPa Calm     84 % 0.0 mm
02:17 19.0 °C 16.2 °C 1020.5 hPa Calm     84 % 0.0 mm
02:22 18.8 °C 16.2 °C 1020.5 hPa Calm     85 % 0.0 mm
02:27 18.7 °C 16.1 °C 1020.5 hPa Calm     85 % 0.0 mm
02:32 18.6 °C 16.0 °C 1020.5 hPa Calm     85 % 0.0 mm
02:37 18.5 °C 16.1 °C 1020.5 hPa Calm     86 % 0.0 mm
02:42 18.3 °C 15.9 °C 1020.5 hPa Calm     86 % 0.0 mm
02:47 18.3 °C 16.1 °C 1020.5 hPa Calm     87 % 0.0 mm
02:52 18.2 °C 16.0 °C 1020.2 hPa Calm     87 % 0.0 mm
02:57 18.1 °C 15.9 °C 1020.2 hPa Calm     87 % 0.0 mm
03:02 18.1 °C 15.9 °C 1020.2 hPa Calm     87 % 0.0 mm
03:12 17.9 °C 15.9 °C 1020.2 hPa Calm     88 % 0.0 mm
03:17 17.8 °C 15.8 °C 1020.2 hPa Calm     88 % 0.0 mm
03:22 17.7 °C 15.7 °C 1020.2 hPa Calm     88 % 0.0 mm
03:27 17.7 °C 15.9 °C 1020.2 hPa Calm     89 % 0.0 mm
03:32 17.6 °C 15.8 °C 1020.2 hPa Calm     89 % 0.0 mm
03:37 17.5 °C 15.7 °C 1020.2 hPa Calm     89 % 0.0 mm
03:42 17.5 °C 15.7 °C 1020.2 hPa Calm     89 % 0.0 mm
03:52 17.5 °C 15.7 °C 1019.9 hPa Calm     89 % 0.0 mm
03:57 17.5 °C 15.7 °C 1019.9 hPa Calm     89 % 0.0 mm
04:02 17.4 °C 15.6 °C 1019.9 hPa Calm     89 % 0.0 mm
04:12 17.4 °C 15.7 °C 1019.9 hPa Calm     90 % 0.0 mm
04:17 17.3 °C 15.6 °C 1019.9 hPa Calm     90 % 0.0 mm
04:22 17.3 °C 15.6 °C 1019.9 hPa Calm     90 % 0.0 mm
04:27 17.3 °C 15.6 °C 1019.9 hPa Calm     90 % 0.0 mm
04:32 17.2 °C 15.5 °C 1019.9 hPa Calm     90 % 0.0 mm
04:37 17.2 °C 15.7 °C 1019.9 hPa Calm     91 % 0.0 mm
04:42 17.2 °C 15.7 °C 1019.9 hPa Calm     91 % 0.0 mm
04:47 17.1 °C 15.4 °C 1019.9 hPa Calm     90 % 0.0 mm
04:52 17.1 °C 15.6 °C 1019.9 hPa Calm     91 % 0.0 mm
04:57 17.0 °C 15.5 °C 1019.9 hPa Calm     91 % 0.0 mm
05:02 17.0 °C 15.5 °C 1019.9 hPa Calm     91 % 0.0 mm
05:12 17.0 °C 15.5 °C 1019.9 hPa Calm     91 % 0.0 mm
05:17 16.9 °C 15.4 °C 1019.9 hPa Calm     91 % 0.0 mm
05:22 16.9 °C 15.4 °C 1019.9 hPa Calm     91 % 0.0 mm
05:27 16.8 °C 15.5 °C 1019.9 hPa Calm     92 % 0.0 mm
05:32 16.8 °C 15.5 °C 1019.9 hPa Calm     92 % 0.0 mm
05:37 16.8 °C 15.5 °C 1019.9 hPa Calm     92 % 0.0 mm
05:42 16.7 °C 15.4 °C 1019.9 hPa Calm     92 % 0.0 mm
05:47 16.6 °C 15.3 °C 1019.9 hPa Calm     92 % 0.0 mm
05:52 16.3 °C 15.0 °C 1019.9 hPa Calm     92 % 0.0 mm
05:57 16.2 °C 14.9 °C 1019.9 hPa Calm     92 % 0.0 mm
06:02 16.1 °C 14.8 °C 1019.9 hPa Calm     92 % 0.0 mm
06:07 15.9 °C 14.6 °C 1019.9 hPa Calm     92 % 0.0 mm
06:12 15.8 °C 14.7 °C 1019.9 hPa Calm     93 % 0.0 mm
06:17 15.7 °C 14.6 °C 1019.9 hPa Calm     93 % 0.0 mm
06:22 15.7 °C 14.6 °C 1020.2 hPa Calm     93 % 0.0 mm
06:27 15.7 °C 14.7 °C 1019.9 hPa Calm     94 % 0.0 mm
06:32 15.8 °C 14.8 °C 1019.9 hPa Calm     94 % 0.0 mm
06:37 15.8 °C 14.8 °C 1020.2 hPa Calm     94 % 0.0 mm
06:42 15.7 °C 14.7 °C 1020.2 hPa Calm     94 % 0.0 mm
06:47 15.7 °C 14.7 °C 1020.2 hPa Calm     94 % 0.0 mm
06:57 15.6 °C 14.6 °C 1020.2 hPa Calm     94 % 0.0 mm
07:02 15.7 °C 14.9 °C 1020.2 hPa Calm     95 % 0.0 mm
07:12 16.0 °C 15.4 °C 1020.2 hPa Calm     96 % 0.0 mm
07:17 16.3 °C 15.7 °C 1020.2 hPa Calm     96 % 0.0 mm
07:22 16.3 °C 15.7 °C 1020.2 hPa Calm     96 % 0.0 mm
07:27 16.5 °C 15.9 °C 1020.2 hPa Calm     96 % 0.0 mm
07:32 16.6 °C 16.0 °C 1020.2 hPa Calm     96 % 0.0 mm
07:37 16.7 °C 16.1 °C 1020.2 hPa Calm     96 % 0.0 mm
07:42 16.9 °C 16.3 °C 1020.2 hPa Calm     96 % 0.0 mm
07:47 17.1 °C 16.5 °C 1020.2 hPa Calm     96 % 0.0 mm
07:52 17.2 °C 16.6 °C 1020.2 hPa Calm     96 % 0.0 mm
07:57 17.3 °C 16.7 °C 1020.2 hPa Calm     96 % 0.0 mm
08:02 17.4 °C 16.6 °C 1020.2 hPa Calm     95 % 0.0 mm
08:12 17.9 °C 17.1 °C 1020.2 hPa Calm     95 % 0.0 mm
08:17 18.2 °C 17.0 °C 1020.2 hPa Calm     93 % 0.0 mm
08:22 18.7 °C 17.4 °C 1020.2 hPa Calm     92 % 0.0 mm
08:27 19.1 °C 17.2 °C 1020.5 hPa Calm     89 % 0.0 mm
08:32 19.6 °C 17.4 °C 1020.5 hPa Calm     87 % 0.0 mm
08:37 19.8 °C 17.4 °C 1020.2 hPa Calm     86 % 0.0 mm
08:42 20.2 °C 17.6 °C 1020.5 hPa Calm     85 % 0.0 mm
08:47 20.4 °C 17.6 °C 1020.5 hPa Calm     84 % 0.0 mm
08:52 20.7 °C 17.7 °C 1020.5 hPa Calm     83 % 0.0 mm
08:57 21.1 °C 17.7 °C 1020.5 hPa Calm     81 % 0.0 mm
09:02 21.4 °C 17.6 °C 1020.5 hPa Calm     79 % 0.0 mm
09:07 21.9 °C 17.9 °C 1020.5 hPa Calm     78 % 0.0 mm
09:12 22.4 °C 17.7 °C 1020.5 hPa Calm     75 % 0.0 mm
09:17 23.0 °C 18.3 °C 1020.5 hPa Calm     75 % 0.0 mm
09:22 23.6 °C 18.0 °C 1020.5 hPa Calm     71 % 0.0 mm
09:27 24.1 °C 17.8 °C 1020.5 hPa Calm     68 % 0.0 mm
09:32 24.7 °C 18.6 °C 1020.5 hPa Calm     69 % 0.0 mm
09:37 25.1 °C 18.5 °C 1020.5 hPa Calm     67 % 0.0 mm
09:47 26.0 °C 18.9 °C 1020.5 hPa Calm     65 % 0.0 mm
09:52 26.3 °C 18.9 °C 1020.5 hPa Calm     64 % 0.0 mm
09:57 26.8 °C 18.9 °C 1020.5 hPa Calm     62 % 0.0 mm
10:02 27.1 °C 18.7 °C 1020.5 hPa Calm     60 % 0.0 mm
10:12 27.9 °C 18.9 °C 1020.2 hPa Calm     58 % 0.0 mm
10:17 28.3 °C 18.1 °C 1020.5 hPa Calm     54 % 0.0 mm
10:22 28.6 °C 18.4 °C 1020.5 hPa Calm     54 % 0.0 mm
10:27 28.6 °C 18.1 °C 1020.5 hPa Calm   6.4 km/h 53 % 0.0 mm
10:32 28.7 °C 18.2 °C 1020.5 hPa West 3.2 km/h 6.4 km/h 53 % 0.0 mm
10:37 28.9 °C 18.4 °C 1020.5 hPa NNW 1.6 km/h 6.4 km/h 53 % 0.0 mm
10:42 28.7 °C 18.2 °C 1020.5 hPa WSW 3.2 km/h 4.8 km/h 53 % 0.0 mm
10:47 28.7 °C 18.2 °C 1020.5 hPa NW 3.2 km/h 4.8 km/h 53 % 0.0 mm
10:52 28.8 °C 18.6 °C 1020.5 hPa Calm   4.8 km/h 54 % 0.0 mm
10:57 29.1 °C 18.2 °C 1020.5 hPa Calm   4.8 km/h 52 % 0.0 mm
11:02 29.4 °C 18.8 °C 1020.5 hPa Calm   4.8 km/h 53 % 0.0 mm
11:07 29.4 °C 17.9 °C 1020.5 hPa Calm   4.8 km/h 50 % 0.0 mm
11:12 29.8 °C 18.6 °C 1020.5 hPa Calm   6.4 km/h 51 % 0.0 mm
11:17 30.0 °C 18.4 °C 1020.5 hPa Calm   6.4 km/h 50 % 0.0 mm
11:22 30.0 °C 18.4 °C 1020.5 hPa Calm   3.2 km/h 50 % 0.0 mm
11:32 30.2 °C 18.3 °C 1020.5 hPa Calm   6.4 km/h 49 % 0.0 mm
11:37 30.5 °C 18.2 °C 1020.5 hPa West 1.6 km/h 4.8 km/h 48 % 0.0 mm
11:42 30.6 °C 19.3 °C 1020.5 hPa Calm   6.4 km/h 51 % 0.0 mm
11:47 31.0 °C 19.0 °C 1020.5 hPa Calm   6.4 km/h 49 % 0.0 mm
11:52 31.2 °C 18.5 °C 1020.5 hPa ENE 3.2 km/h 4.8 km/h 47 % 0.0 mm
11:57 31.2 °C 18.2 °C 1020.5 hPa Calm   4.8 km/h 46 % 0.0 mm
12:02 31.1 °C 18.8 °C 1020.5 hPa Calm   4.8 km/h 48 % 0.0 mm
12:12 31.2 °C 18.5 °C 1020.5 hPa WSW 1.6 km/h 3.2 km/h 47 % 0.0 mm
12:17 31.3 °C 18.6 °C 1020.5 hPa Calm   3.2 km/h 47 % 0.0 mm
12:22 31.6 °C 18.6 °C 1020.5 hPa WSW 1.6 km/h 4.8 km/h 46 % 0.0 mm
12:27 31.8 °C 18.4 °C 1020.5 hPa Calm   4.8 km/h 45 % 0.0 mm
12:32 32.1 °C 19.0 °C 1020.5 hPa NNE 1.6 km/h 4.8 km/h 46 % 0.0 mm
12:37 31.9 °C 19.2 °C 1020.5 hPa NNE 3.2 km/h 4.8 km/h 47 % 0.0 mm
12:42 32.1 °C 19.0 °C 1020.5 hPa Calm   4.8 km/h 46 % 0.0 mm
12:52 32.6 °C 18.8 °C 1020.2 hPa Calm   6.4 km/h 44 % 0.0 mm
12:57 32.7 °C 18.8 °C 1020.2 hPa Calm   6.4 km/h 44 % 0.0 mm
13:02 32.2 °C 18.8 °C 1020.2 hPa Calm   3.2 km/h 45 % 0.0 mm
13:12 32.1 °C 18.3 °C 1020.2 hPa Calm   8.0 km/h 44 % 0.0 mm
13:17 31.8 °C 18.7 °C 1020.2 hPa Calm   8.0 km/h 46 % 0.0 mm
13:22 32.2 °C 18.4 °C 1020.2 hPa Calm   6.4 km/h 44 % 0.0 mm
13:27 32.6 °C 19.1 °C 1020.2 hPa West 1.6 km/h 8.0 km/h 45 % 0.0 mm
13:32 32.6 °C 19.5 °C 1020.2 hPa Calm   8.0 km/h 46 % 0.0 mm
13:37 33.0 °C 18.8 °C 1020.2 hPa Calm   8.0 km/h 43 % 0.0 mm
13:42 32.7 °C 17.3 °C 1020.2 hPa Calm   6.4 km/h 40 % 0.0 mm
13:47 32.6 °C 17.6 °C 1019.9 hPa Calm   6.4 km/h 41 % 0.0 mm
13:52 32.8 °C 17.8 °C 1019.9 hPa Calm   6.4 km/h 41 % 0.0 mm
14:02 32.8 °C 18.2 °C 1019.9 hPa Calm   6.4 km/h 42 % 0.0 mm
14:07 33.2 °C 18.9 °C 1019.9 hPa Calm   6.4 km/h 43 % 0.0 mm
14:12 33.5 °C 17.6 °C 1019.9 hPa Calm   6.4 km/h 39 % 0.0 mm
14:17 33.3 °C 17.5 °C 1019.9 hPa NW 3.2 km/h 6.4 km/h 39 % 0.0 mm
14:22 33.2 °C 17.4 °C 1019.9 hPa Calm   6.4 km/h 39 % 0.0 mm
14:27 33.4 °C 17.6 °C 1019.5 hPa Calm   6.4 km/h 39 % 0.0 mm
14:32 33.4 °C 19.1 °C 1019.5 hPa NNW 1.6 km/h 8.0 km/h 43 % 0.0 mm
14:37 33.7 °C 17.4 °C 1019.5 hPa ESE 1.6 km/h 8.0 km/h 38 % 0.0 mm
14:42 33.7 °C 17.8 °C 1019.5 hPa NE 1.6 km/h 8.0 km/h 39 % 0.0 mm
14:47 33.6 °C 17.3 °C 1019.5 hPa Calm   4.8 km/h 38 % 0.0 mm
14:52 33.8 °C 17.1 °C 1019.5 hPa Calm   6.4 km/h 37 % 0.0 mm
15:02 34.3 °C 16.2 °C 1019.5 hPa Calm   6.4 km/h 34 % 0.0 mm
15:07 34.3 °C 16.6 °C 1019.5 hPa ENE 3.2 km/h 4.8 km/h 35 % 0.0 mm
15:12 34.0 °C 16.4 °C 1019.5 hPa SW 1.6 km/h 4.8 km/h 35 % 0.0 mm
15:17 34.3 °C 18.4 °C 1019.2 hPa Calm   4.8 km/h 39 % 0.0 mm
15:22 34.3 °C 16.2 °C 1019.2 hPa Calm   6.4 km/h 34 % 0.0 mm
15:37 34.0 °C 17.3 °C 1019.2 hPa Calm   6.4 km/h 37 % 0.0 mm
15:42 34.2 °C 17.9 °C 1019.2 hPa Calm   6.4 km/h 38 % 0.0 mm
15:47 34.0 °C 16.8 °C 1019.2 hPa Calm   6.4 km/h 36 % 0.0 mm
15:52 34.0 °C 15.9 °C 1018.8 hPa Calm   6.4 km/h 34 % 0.0 mm
15:57 34.3 °C 16.6 °C 1018.8 hPa Calm   4.8 km/h 35 % 0.0 mm
16:02 34.4 °C 17.6 °C 1018.8 hPa West 3.2 km/h 4.8 km/h 37 % 0.0 mm
16:07 34.3 °C 17.9 °C 1018.8 hPa Calm   4.8 km/h 38 % 0.0 mm
16:12 34.7 °C 16.1 °C 1018.8 hPa Calm   4.8 km/h 33 % 0.0 mm
16:22 34.7 °C 16.1 °C 1018.8 hPa Calm   6.4 km/h 33 % 0.0 mm
16:27 34.6 °C 16.0 °C 1018.8 hPa Calm   6.4 km/h 33 % 0.0 mm
16:32 34.5 °C 16.8 °C 1018.5 hPa Calm   6.4 km/h 35 % 0.0 mm
16:37 34.4 °C 16.7 °C 1018.5 hPa Calm   6.4 km/h 35 % 0.0 mm
16:42 34.4 °C 16.7 °C 1018.5 hPa Calm   6.4 km/h 35 % 0.0 mm
16:47 34.9 °C 17.6 °C 1018.5 hPa Calm   4.8 km/h 36 % 0.0 mm
16:52 34.7 °C 17.4 °C 1018.5 hPa Calm   4.8 km/h 36 % 0.0 mm
17:12 34.4 °C 18.8 °C 1018.5 hPa NNE 1.6 km/h 6.4 km/h 40 % 0.0 mm
17:17 34.3 °C 17.5 °C 1018.5 hPa Calm   6.4 km/h 37 % 0.0 mm
17:22 34.2 °C 17.0 °C 1018.5 hPa Calm   8.0 km/h 36 % 0.0 mm
17:32 34.6 °C 18.2 °C 1018.2 hPa Calm   8.0 km/h 38 % 0.0 mm
17:42 34.7 °C 17.4 °C 1018.2 hPa Calm   4.8 km/h 36 % 0.0 mm
17:47 34.8 °C 16.6 °C 1018.2 hPa WSW 1.6 km/h 4.8 km/h 34 % 0.0 mm
17:52 34.8 °C 16.6 °C 1018.2 hPa Calm   4.8 km/h 34 % 0.0 mm
17:57 34.9 °C 16.7 °C 1018.2 hPa Calm   4.8 km/h 34 % 0.0 mm
18:02 34.8 °C 17.1 °C 1018.2 hPa NE 3.2 km/h 4.8 km/h 35 % 0.0 mm
18:07 34.7 °C 17.4 °C 1018.2 hPa WSW 1.6 km/h 4.8 km/h 36 % 0.0 mm
18:12 34.6 °C 16.9 °C 1018.2 hPa Calm   4.8 km/h 35 % 0.0 mm
18:17 34.4 °C 17.2 °C 1018.2 hPa Calm   4.8 km/h 36 % 0.0 mm
18:22 34.4 °C 18.4 °C 1017.8 hPa Calm   3.2 km/h 39 % 0.0 mm
18:27 34.4 °C 16.3 °C 1017.8 hPa WSW 1.6 km/h 3.2 km/h 34 % 0.0 mm
18:32 34.3 °C 16.6 °C 1017.8 hPa Calm   6.4 km/h 35 % 0.0 mm
18:37 34.4 °C 16.3 °C 1017.8 hPa Calm   6.4 km/h 34 % 0.0 mm
18:42 34.3 °C 16.2 °C 1017.8 hPa Calm   4.8 km/h 34 % 0.0 mm
18:47 34.1 °C 16.5 °C 1017.8 hPa Calm   4.8 km/h 35 % 0.0 mm
18:52 33.8 °C 16.6 °C 1017.8 hPa Calm   3.2 km/h 36 % 0.0 mm
19:02 32.9 °C 15.9 °C 1017.8 hPa Calm   3.2 km/h 36 % 0.0 mm
19:12 32.3 °C 15.3 °C 1017.8 hPa Calm   4.8 km/h 36 % 0.0 mm
19:17 32.1 °C 15.6 °C 1017.8 hPa Calm   4.8 km/h 37 % 0.0 mm
19:22 31.8 °C 16.5 °C 1017.8 hPa Calm   4.8 km/h 40 % 0.0 mm
19:32 31.3 °C 16.9 °C 1017.8 hPa Calm   4.8 km/h 42 % 0.0 mm
19:42 30.6 °C 15.5 °C 1017.8 hPa Calm   3.2 km/h 40 % 0.0 mm
19:47 30.6 °C 16.2 °C 1017.8 hPa Calm     42 % 0.0 mm
19:52 30.3 °C 17.0 °C 1017.8 hPa Calm     45 % 0.0 mm
20:02 29.8 °C 16.9 °C 1017.8 hPa Calm   1.6 km/h 46 % 0.0 mm
20:12 29.6 °C 16.4 °C 1017.8 hPa Calm   1.6 km/h 45 % 0.0 mm
20:22 29.3 °C 16.8 °C 1017.8 hPa Calm   3.2 km/h 47 % 0.0 mm
20:32 28.8 °C 17.3 °C 1017.8 hPa Calm   1.6 km/h 50 % 0.0 mm
20:42 28.2 °C 17.4 °C 1017.8 hPa Calm     52 % 0.0 mm
20:52 27.7 °C 17.5 °C 1017.8 hPa Calm     54 % 0.0 mm
20:57 27.4 °C 17.8 °C 1017.8 hPa Calm     56 % 0.0 mm
21:02 27.1 °C 17.3 °C 1017.8 hPa Calm     55 % 0.0 mm
21:12 26.4 °C 17.7 °C 1018.2 hPa Calm     59 % 0.0 mm
21:17 26.1 °C 17.7 °C 1018.2 hPa Calm     60 % 0.0 mm
21:22 25.7 °C 17.4 °C 1017.8 hPa Calm     60 % 0.0 mm
21:32 25.1 °C 17.3 °C 1018.2 hPa Calm     62 % 0.0 mm
21:42 24.6 °C 17.6 °C 1018.2 hPa Calm     65 % 0.0 mm
21:52 24.1 °C 17.6 °C 1018.2 hPa Calm     67 % 0.0 mm
21:57 23.8 °C 17.5 °C 1018.5 hPa Calm     68 % 0.0 mm
22:02 23.6 °C 17.6 °C 1018.2 hPa Calm     69 % 0.0 mm
22:12 23.2 °C 17.6 °C 1018.5 hPa Calm     71 % 0.0 mm
22:17 23.0 °C 17.7 °C 1018.5 hPa Calm     72 % 0.0 mm
22:22 22.8 °C 17.5 °C 1018.5 hPa Calm     72 % 0.0 mm
22:32 22.6 °C 17.5 °C 1018.5 hPa Calm     73 % 0.0 mm
22:42 22.4 °C 17.3 °C 1018.5 hPa Calm     73 % 0.0 mm
22:52 22.2 °C 17.3 °C 1018.5 hPa Calm     74 % 0.0 mm
22:57 22.0 °C 17.4 °C 1018.5 hPa Calm     75 % 0.0 mm
23:02 21.9 °C 17.3 °C 1018.5 hPa Calm     75 % 0.0 mm
23:12 21.7 °C 17.3 °C 1018.5 hPa Calm     76 % 0.0 mm
23:17 21.8 °C 17.4 °C 1018.5 hPa Calm     76 % 0.0 mm
23:22 22.0 °C 17.2 °C 1018.5 hPa Calm     74 % 0.0 mm
23:32 22.2 °C 17.3 °C 1018.5 hPa Calm   1.6 km/h 74 % 0.0 mm
23:42 22.2 °C 17.1 °C 1018.5 hPa Calm   1.6 km/h 73 % 0.0 mm
23:52 22.1 °C 17.2 °C 1018.5 hPa Calm     74 % 0.0 mm
23:57 22.0 °C 17.2 °C 1018.8 hPa Calm     74 % 0.0 mm
Meteo18
Compliments of Weather Underground - 4 mb

Script developed by  Jim McMurry - jmcmurry@mwt.net Adapted for the template by  Wim van der Kuil - Leuven-Template.eu

You find our weather info also at:

European Weather Network

Weather Underground

Equipment we use:

Weather-station
Davis Vue

Weather-program
Meteohub

Weather-server
Raspberry PI 2 B+

Provider
1 and 1

Davis Vue

Meteohub

Raspberry PI 2 B+

1 and 1